createdAt,value
2022-12-13T00:02:07.057Z,0.70
2022-12-13T00:04:38.904Z,0.70
2022-12-13T00:07:08.337Z,0.70
2022-12-13T00:09:36.107Z,0.70
2022-12-13T00:12:06.443Z,0.60
2022-12-13T00:14:36.161Z,0.60
2022-12-13T00:17:07.741Z,0.60
2022-12-13T00:19:35.886Z,0.70
2022-12-13T00:22:05.476Z,0.70
2022-12-13T00:24:39.096Z,0.60
2022-12-13T00:27:15.861Z,0.60
2022-12-13T00:29:46.507Z,0.60
2022-12-13T00:32:16.203Z,0.60
2022-12-13T00:34:46.114Z,0.60
2022-12-13T00:37:13.884Z,0.60
2022-12-13T00:39:41.862Z,0.70
2022-12-13T00:42:12.012Z,0.70
2022-12-13T00:44:43.281Z,0.70
2022-12-13T00:47:16.503Z,0.60
2022-12-13T00:49:48.008Z,0.60
2022-12-13T00:52:16.348Z,0.40
2022-12-13T00:54:45.204Z,0.40
2022-12-13T00:57:12.852Z,0.40
2022-12-13T00:59:43.697Z,0.50
2022-12-13T01:02:13.115Z,0.50
2022-12-13T01:04:45.256Z,0.40
2022-12-13T01:07:12.790Z,0.40
2022-12-13T01:09:42.501Z,0.50
2022-12-13T01:12:14.077Z,0.50
2022-12-13T01:14:44.022Z,0.50
2022-12-13T01:17:13.652Z,0.40
2022-12-13T01:19:44.057Z,0.30
2022-12-13T01:22:14.740Z,0.30
2022-12-13T01:24:45.437Z,0.30
2022-12-13T01:27:15.507Z,0.30
2022-12-13T01:29:47.328Z,0.30
2022-12-13T01:32:16.083Z,0.20
2022-12-13T01:34:45.151Z,0.20
2022-12-13T01:37:18.303Z,0.20
2022-12-13T01:39:46.413Z,0.20
2022-12-13T01:42:27.560Z,0.20
2022-12-13T01:45:25.966Z,0.30
2022-12-13T01:48:02.148Z,0.30
2022-12-13T01:50:39.015Z,0.30
2022-12-13T01:53:10.169Z,0.30
2022-12-13T01:55:41.588Z,0.20
2022-12-13T01:58:14.758Z,0.20
2022-12-13T02:00:45.640Z,0.20
2022-12-13T02:03:21.226Z,0.30
2022-12-13T02:06:19.311Z,0.30
2022-12-13T02:08:51.214Z,0.30
2022-12-13T02:11:20.473Z,0.40
2022-12-13T02:13:51.575Z,0.50
2022-12-13T02:16:53.273Z,0.40
2022-12-13T02:19:45.883Z,0.30
2022-12-13T02:22:49.329Z,0.20
2022-12-13T02:25:51.417Z,0.30
2022-12-13T02:28:53.770Z,0.30
2022-12-13T02:31:54.436Z,0.20
2022-12-13T02:34:52.454Z,0.30
2022-12-13T02:37:41.851Z,0.30
2022-12-13T02:40:26.900Z,0.30
2022-12-13T02:43:33.576Z,0.30
2022-12-13T02:46:08.924Z,0.30
2022-12-13T02:48:45.387Z,0.30
2022-12-13T02:51:15.491Z,0.30
2022-12-13T02:53:46.878Z,0.30
2022-12-13T02:56:15.151Z,0.30
2022-12-13T02:58:51.914Z,0.30
2022-12-13T03:01:55.017Z,0.30
2022-12-13T03:05:09.297Z,0.20
2022-12-13T03:07:53.367Z,0.10
2022-12-13T03:10:37.903Z,0.20
2022-12-13T03:13:35.322Z,0.20
2022-12-13T03:16:23.849Z,0.20
2022-12-13T03:18:56.264Z,0.20
2022-12-13T03:21:25.221Z,0.20
2022-12-13T03:23:54.092Z,0.20
2022-12-13T03:26:27.311Z,0.20
2022-12-13T03:28:55.277Z,0.20
2022-12-13T03:35:00.460Z,0.30
2022-12-13T03:37:29.304Z,0.30
2022-12-13T03:39:57.643Z,0.20
2022-12-13T03:42:27.234Z,0.30
2022-12-13T03:44:55.711Z,0.30
2022-12-13T03:47:22.995Z,0.30
2022-12-13T03:49:54.202Z,0.30
2022-12-13T03:52:21.994Z,0.40
2022-12-13T03:54:50.701Z,0.40
2022-12-13T03:57:17.783Z,0.30
2022-12-13T03:59:44.934Z,0.30
2022-12-13T04:02:12.311Z,0.40
2022-12-13T04:04:39.503Z,0.50
2022-12-13T04:07:06.689Z,0.60
2022-12-13T04:09:50.855Z,0.60
2022-12-13T04:12:36.826Z,0.60
2022-12-13T04:15:04.183Z,0.50
2022-12-13T04:17:31.430Z,0.50
2022-12-13T04:19:59.154Z,0.40
2022-12-13T04:22:26.963Z,0.40
2022-12-13T04:24:54.995Z,0.40
2022-12-13T04:27:22.945Z,0.30
2022-12-13T04:29:50.274Z,0.30
2022-12-13T04:32:26.629Z,0.30
2022-12-13T04:35:12.721Z,0.20
2022-12-13T04:37:40.015Z,0.30
2022-12-13T04:40:14.700Z,0.40
2022-12-13T04:42:53.955Z,0.50
2022-12-13T04:45:23.082Z,0.50
2022-12-13T04:47:51.381Z,0.40
2022-12-13T04:50:22.301Z,0.40
2022-12-13T04:52:49.501Z,0.40
2022-12-13T04:55:17.075Z,0.50
2022-12-13T04:57:45.153Z,0.40
2022-12-13T05:00:15.485Z,0.40
2022-12-13T05:02:43.219Z,0.30
2022-12-13T05:05:11.707Z,0.20
2022-12-13T05:07:42.330Z,0.20
2022-12-13T05:10:11.810Z,0.00
2022-12-13T05:12:41.089Z,-0.10
2022-12-13T05:15:09.476Z,-0.20
2022-12-13T05:17:36.847Z,-0.20
2022-12-13T05:20:08.631Z,-0.20
2022-12-13T05:22:37.833Z,-0.10
2022-12-13T05:25:07.705Z,0.00
2022-12-13T05:27:35.034Z,0.10
2022-12-13T05:30:04.731Z,0.10
2022-12-13T05:32:44.144Z,0.10
2022-12-13T05:35:22.770Z,0.20
2022-12-13T05:37:53.689Z,0.20
2022-12-13T05:40:24.352Z,0.20
2022-12-13T05:43:01.195Z,0.30
2022-12-13T05:45:31.053Z,0.30
2022-12-13T05:47:58.411Z,0.30
2022-12-13T05:50:26.238Z,0.40
2022-12-13T05:52:54.262Z,0.30
2022-12-13T05:55:21.456Z,0.20
2022-12-13T05:57:50.561Z,0.20
2022-12-13T06:00:29.084Z,0.20
2022-12-13T06:03:00.742Z,0.10
2022-12-13T06:05:32.804Z,0.10
2022-12-13T06:08:00.580Z,0.00
2022-12-13T06:10:34.178Z,0.00
2022-12-13T06:13:21.744Z,-0.10
2022-12-13T06:16:01.247Z,-0.20
2022-12-13T06:18:32.204Z,-0.20
2022-12-13T06:21:01.341Z,-0.20
2022-12-13T06:23:32.959Z,-0.20
2022-12-13T06:26:06.054Z,-0.20
2022-12-13T06:28:34.242Z,-0.20
2022-12-13T06:31:03.588Z,-0.10
2022-12-13T06:33:36.555Z,-0.10
2022-12-13T06:36:10.212Z,-0.10
2022-12-13T06:38:43.286Z,-0.10
2022-12-13T06:41:16.225Z,-0.10
2022-12-13T06:43:45.321Z,-0.10
2022-12-13T06:46:15.407Z,-0.10
2022-12-13T06:48:43.206Z,-0.10
2022-12-13T06:51:12.974Z,-0.10
2022-12-13T06:53:52.912Z,0.00
2022-12-13T06:56:20.190Z,0.10
2022-12-13T06:58:47.407Z,0.10
2022-12-13T07:01:24.630Z,0.10
2022-12-13T07:03:55.911Z,0.20
2022-12-13T07:06:25.307Z,0.20
2022-12-13T07:08:58.932Z,0.30
2022-12-13T07:11:28.864Z,0.30
2022-12-13T07:13:56.649Z,0.20
2022-12-13T07:16:24.831Z,0.30
2022-12-13T07:19:00.982Z,0.40
2022-12-13T07:21:33.138Z,0.40
2022-12-13T07:24:03.695Z,0.50
2022-12-13T07:26:32.570Z,0.50
2022-12-13T07:29:06.691Z,0.60
2022-12-13T07:31:39.799Z,0.60
2022-12-13T07:34:12.881Z,0.70
2022-12-13T07:36:48.233Z,0.70
2022-12-13T07:39:17.975Z,0.80
2022-12-13T07:41:47.656Z,0.90
2022-12-13T07:44:15.435Z,1.00
2022-12-13T07:46:49.264Z,1.00
2022-12-13T07:49:21.657Z,1.10
2022-12-13T07:51:49.929Z,1.20
2022-12-13T07:54:18.358Z,1.20
2022-12-13T07:56:50.450Z,1.30
2022-12-13T07:59:28.548Z,1.30
2022-12-13T08:01:57.594Z,1.40
2022-12-13T08:04:29.639Z,1.40
2022-12-13T08:07:09.351Z,1.40
2022-12-13T08:09:38.417Z,1.40
2022-12-13T08:12:06.227Z,1.40
2022-12-13T08:14:35.944Z,1.40
2022-12-13T08:17:03.217Z,1.40
2022-12-13T08:19:31.215Z,1.40
2022-12-13T08:22:01.698Z,1.40
2022-12-13T08:24:30.986Z,1.40
2022-12-13T08:27:02.058Z,1.40
2022-12-13T08:29:33.987Z,1.40
2022-12-13T08:32:11.971Z,1.50
2022-12-13T08:34:43.919Z,1.50
2022-12-13T08:37:11.666Z,1.40
2022-12-13T08:39:45.301Z,1.50
2022-12-13T08:42:20.914Z,1.50
2022-12-13T08:44:54.865Z,1.50
2022-12-13T08:47:26.324Z,1.60
2022-12-13T08:50:02.251Z,1.60
2022-12-13T08:52:40.810Z,1.70
2022-12-13T08:55:14.113Z,1.60
2022-12-13T08:57:43.800Z,1.70
2022-12-13T09:00:17.884Z,1.70
2022-12-13T09:02:45.380Z,1.70
2022-12-13T09:05:13.201Z,1.70
2022-12-13T09:08:23.992Z,1.80
2022-12-13T09:10:59.982Z,1.80
2022-12-13T09:13:32.560Z,1.90
2022-12-13T09:16:14.432Z,1.90
2022-12-13T09:18:54.813Z,2.00
2022-12-13T09:21:31.678Z,2.00
2022-12-13T09:24:01.471Z,2.10
2022-12-13T09:26:38.202Z,2.20
2022-12-13T09:29:10.963Z,2.20
2022-12-13T09:31:41.227Z,2.20
2022-12-13T09:34:12.857Z,2.20
2022-12-13T09:36:41.104Z,2.30
2022-12-13T09:39:09.270Z,2.30
2022-12-13T09:41:41.439Z,2.30
2022-12-13T09:44:32.095Z,2.30
2022-12-13T09:47:13.219Z,2.40
2022-12-13T09:49:52.703Z,2.40
2022-12-13T09:52:23.630Z,2.50
2022-12-13T09:54:53.976Z,2.50
2022-12-13T09:57:33.218Z,2.50
2022-12-13T10:00:08.438Z,2.60
2022-12-13T10:02:57.046Z,2.70
2022-12-13T10:05:40.496Z,2.70
2022-12-13T10:08:19.688Z,2.70
2022-12-13T10:10:51.014Z,2.80
2022-12-13T10:13:29.806Z,2.80
2022-12-13T10:16:06.718Z,2.80
2022-12-13T10:18:39.507Z,2.80
2022-12-13T10:21:33.614Z,2.80
2022-12-13T10:24:36.394Z,2.90
2022-12-13T10:27:22.001Z,2.90
2022-12-13T10:30:28.774Z,3.00
2022-12-13T10:33:06.942Z,3.00
2022-12-13T10:35:43.223Z,3.10
2022-12-13T10:38:17.264Z,3.10
2022-12-13T10:40:48.893Z,3.30
2022-12-13T10:43:28.575Z,3.40
2022-12-13T10:46:03.920Z,3.40
2022-12-13T10:48:49.198Z,3.40
2022-12-13T10:51:23.121Z,3.50
2022-12-13T10:53:59.043Z,3.70
2022-12-13T10:56:46.543Z,3.90
2022-12-13T10:59:39.940Z,4.00
2022-12-13T11:02:28.748Z,4.10
2022-12-13T11:04:58.307Z,4.20
2022-12-13T11:07:30.143Z,4.20
2022-12-13T11:10:05.017Z,4.20
2022-12-13T11:12:35.540Z,4.20
2022-12-13T11:15:07.805Z,4.20
2022-12-13T11:17:45.688Z,4.00
2022-12-13T11:20:38.733Z,4.00
2022-12-13T11:23:23.485Z,3.70
2022-12-13T11:25:56.641Z,3.70
2022-12-13T11:28:30.721Z,3.60
2022-12-13T11:31:36.475Z,3.60
2022-12-13T11:34:12.710Z,3.60
2022-12-13T11:37:16.043Z,3.60
2022-12-13T11:40:01.611Z,3.60
2022-12-13T11:42:38.581Z,3.60
2022-12-13T11:45:08.738Z,3.60
2022-12-13T11:47:58.918Z,3.60
2022-12-13T11:50:32.818Z,3.60
2022-12-13T11:53:30.087Z,3.70
2022-12-13T11:56:08.505Z,3.80
2022-12-13T11:59:04.698Z,3.80
2022-12-13T12:01:54.768Z,3.80
2022-12-13T12:04:46.204Z,3.80
2022-12-13T12:07:31.875Z,3.90
2022-12-13T12:10:30.582Z,3.90
2022-12-13T12:13:09.882Z,4.20
2022-12-13T12:16:15.871Z,4.60
2022-12-13T12:18:44.416Z,4.90
2022-12-13T12:21:49.605Z,5.20
2022-12-13T12:24:30.062Z,5.50
2022-12-13T12:27:26.186Z,5.70
2022-12-13T12:30:07.739Z,5.70
2022-12-13T12:32:44.291Z,5.50
2022-12-13T12:35:21.880Z,5.20
2022-12-13T12:38:07.570Z,5.10
2022-12-13T12:41:14.089Z,5.00
2022-12-13T12:43:43.717Z,4.90
2022-12-13T12:46:46.821Z,4.80
2022-12-13T12:49:27.892Z,4.60
2022-12-13T12:52:13.143Z,4.60
2022-12-13T12:58:01.610Z,4.60
2022-12-13T13:00:39.327Z,4.70
2022-12-13T13:03:24.626Z,4.50
2022-12-13T13:06:01.970Z,4.40
2022-12-13T13:08:55.076Z,4.30
2022-12-13T13:11:27.607Z,4.30
2022-12-13T13:14:03.499Z,4.30
2022-12-13T13:16:39.665Z,4.20
2022-12-13T13:19:35.696Z,4.20
2022-12-13T13:22:21.612Z,4.20
2022-12-13T13:25:31.077Z,4.20
2022-12-13T13:28:16.580Z,4.10
2022-12-13T13:31:10.163Z,4.10
2022-12-13T13:33:51.457Z,4.10
2022-12-13T13:36:43.375Z,4.10
2022-12-13T13:39:53.036Z,4.00
2022-12-13T13:42:25.196Z,3.90
2022-12-13T13:44:52.505Z,3.90
2022-12-13T13:47:20.507Z,3.90
2022-12-13T13:50:27.254Z,3.80
2022-12-13T13:53:13.799Z,3.80
2022-12-13T13:56:07.011Z,3.80
2022-12-13T13:59:05.222Z,3.80
2022-12-13T14:02:11.469Z,3.80
2022-12-13T14:05:07.836Z,3.70
2022-12-13T14:07:43.709Z,3.70
2022-12-13T14:10:20.589Z,3.60
2022-12-13T14:13:08.480Z,3.70
2022-12-13T14:15:57.737Z,3.60
2022-12-13T14:18:37.455Z,3.60
2022-12-13T14:21:20.009Z,3.60
2022-12-13T14:24:01.433Z,3.50
2022-12-13T14:26:41.455Z,3.50
2022-12-13T14:29:29.282Z,3.50
2022-12-13T14:31:56.625Z,3.40
2022-12-13T14:34:29.751Z,3.40
2022-12-13T14:37:01.495Z,3.40
2022-12-13T14:39:33.685Z,3.40
2022-12-13T14:42:02.986Z,3.40
2022-12-13T14:44:34.550Z,3.40
2022-12-13T14:47:06.008Z,3.40
2022-12-13T14:49:36.057Z,3.30
2022-12-13T14:52:06.671Z,3.30
2022-12-13T14:54:47.330Z,3.30
2022-12-13T14:57:21.845Z,3.30
2022-12-13T14:59:54.594Z,3.30
2022-12-13T15:02:30.083Z,3.20
2022-12-13T15:05:10.534Z,3.20
2022-12-13T15:07:38.822Z,3.30
2022-12-13T15:10:21.047Z,3.20
2022-12-13T15:12:51.391Z,3.20
2022-12-13T15:15:38.520Z,3.20
2022-12-13T15:18:27.873Z,3.20
2022-12-13T15:21:22.331Z,3.10
2022-12-13T15:23:55.280Z,3.10
2022-12-13T15:26:29.949Z,3.10
2022-12-13T15:29:10.060Z,3.10
2022-12-13T15:31:40.592Z,3.00
2022-12-13T15:34:31.135Z,3.10
2022-12-13T15:37:01.470Z,3.00
2022-12-13T15:39:31.280Z,3.00
2022-12-13T15:42:02.199Z,3.00
2022-12-13T15:44:44.966Z,3.00
2022-12-13T15:47:28.346Z,3.00
2022-12-13T15:50:01.537Z,3.00
2022-12-13T15:52:40.005Z,3.00
2022-12-13T15:55:07.306Z,3.00
2022-12-13T15:57:56.544Z,3.00
2022-12-13T16:00:32.457Z,3.00
2022-12-13T16:03:18.819Z,2.90
2022-12-13T16:05:52.456Z,2.90
2022-12-13T16:08:33.170Z,2.90
2022-12-13T16:11:06.841Z,2.90
2022-12-13T16:13:40.101Z,2.90
2022-12-13T16:16:30.136Z,2.90
2022-12-13T16:19:02.006Z,2.80
2022-12-13T16:21:30.382Z,2.80
2022-12-13T16:23:57.495Z,2.90
2022-12-13T16:26:27.769Z,2.90
2022-12-13T16:28:58.626Z,2.90
2022-12-13T16:31:35.388Z,2.90
2022-12-13T16:34:05.296Z,2.90
2022-12-13T16:36:32.614Z,3.00
2022-12-13T16:38:59.791Z,3.00
2022-12-13T16:41:27.932Z,3.00
2022-12-13T16:44:04.179Z,3.00
2022-12-13T16:47:17.331Z,3.00
2022-12-13T16:49:32.271Z,3.00
2022-12-13T16:52:00.004Z,3.00
2022-12-13T16:54:28.776Z,3.00
2022-12-13T16:56:56.299Z,3.10
2022-12-13T16:59:28.208Z,3.00
2022-12-13T17:01:55.851Z,3.00
2022-12-13T17:04:24.464Z,3.00
2022-12-13T17:06:55.100Z,3.00
2022-12-13T17:09:25.424Z,3.10
2022-12-13T17:11:52.915Z,3.10
2022-12-13T17:14:20.065Z,3.00
2022-12-13T17:16:49.079Z,3.10
2022-12-13T17:19:17.839Z,3.10
2022-12-13T17:21:48.118Z,3.10
2022-12-13T17:24:15.923Z,3.10
2022-12-13T17:26:54.282Z,3.10
2022-12-13T17:29:24.863Z,3.00
2022-12-13T17:31:53.158Z,3.00
2022-12-13T17:34:22.805Z,3.00
2022-12-13T17:36:50.112Z,3.00
2022-12-13T17:39:18.558Z,2.90
2022-12-13T17:41:54.938Z,2.80
2022-12-13T17:44:24.618Z,2.80
2022-12-13T17:46:55.242Z,2.80
2022-12-13T17:49:23.885Z,2.80
2022-12-13T17:51:54.217Z,2.80
2022-12-13T17:54:26.410Z,2.80
2022-12-13T17:56:54.585Z,2.80
2022-12-13T17:59:22.060Z,2.80
2022-12-13T18:01:50.151Z,2.80
2022-12-13T18:04:17.747Z,2.70
2022-12-13T18:06:48.242Z,2.80
2022-12-13T18:09:16.174Z,2.90
2022-12-13T18:11:44.336Z,2.90
2022-12-13T18:14:11.942Z,2.90
2022-12-13T18:16:40.273Z,2.90
2022-12-13T18:19:12.136Z,2.90
2022-12-13T18:21:39.988Z,2.90
2022-12-13T18:24:10.116Z,2.90
2022-12-13T18:26:37.250Z,3.00
2022-12-13T18:29:05.025Z,3.00
2022-12-13T18:31:32.515Z,3.00
2022-12-13T18:34:01.348Z,3.00
2022-12-13T18:36:30.540Z,3.00
2022-12-13T18:38:57.683Z,3.00
2022-12-13T18:41:30.300Z,2.80
2022-12-13T18:44:00.208Z,2.90
2022-12-13T18:46:30.209Z,2.90
2022-12-13T18:48:58.502Z,3.00
2022-12-13T18:51:30.476Z,2.90
2022-12-13T18:54:01.791Z,3.00
2022-12-13T18:56:29.931Z,3.00
2022-12-13T18:58:58.139Z,3.00
2022-12-13T19:01:31.288Z,3.00
2022-12-13T19:03:58.593Z,2.90
2022-12-13T19:06:28.647Z,2.90
2022-12-13T19:08:58.095Z,2.90
2022-12-13T19:11:28.636Z,2.90
2022-12-13T19:14:01.011Z,2.90
2022-12-13T19:16:28.885Z,2.90
2022-12-13T19:18:57.381Z,2.90
2022-12-13T19:21:24.489Z,2.90
2022-12-13T19:23:57.348Z,2.90
2022-12-13T19:26:31.544Z,2.90
2022-12-13T19:28:59.419Z,2.90
2022-12-13T19:31:31.474Z,2.90
2022-12-13T19:34:01.642Z,2.90
2022-12-13T19:36:32.424Z,2.90
2022-12-13T19:38:59.908Z,2.90
2022-12-13T19:41:27.900Z,3.00
2022-12-13T19:43:55.143Z,2.90
2022-12-13T19:46:26.710Z,2.90
2022-12-13T19:48:53.978Z,3.00
2022-12-13T19:51:21.788Z,3.00
2022-12-13T19:53:49.360Z,3.10
2022-12-13T19:56:19.427Z,3.00
2022-12-13T19:58:51.832Z,3.00
2022-12-13T20:01:20.218Z,3.10
2022-12-13T20:03:47.641Z,3.10
2022-12-13T20:06:18.770Z,3.10
2022-12-13T20:08:47.072Z,3.10
2022-12-13T20:11:19.576Z,3.10
2022-12-13T20:13:48.322Z,3.10
2022-12-13T20:16:22.691Z,3.10
2022-12-13T20:18:58.811Z,3.10
2022-12-13T20:21:31.176Z,3.10
2022-12-13T20:24:02.387Z,3.10
2022-12-13T20:26:33.595Z,3.10
2022-12-13T20:29:00.834Z,3.10
2022-12-13T20:31:30.589Z,3.10
2022-12-13T20:34:00.824Z,3.20
2022-12-13T20:36:31.855Z,3.20
2022-12-13T20:39:00.573Z,3.10
2022-12-13T20:41:31.415Z,3.10
2022-12-13T20:44:00.449Z,3.10
2022-12-13T20:46:32.015Z,3.10
2022-12-13T20:49:01.803Z,3.00
2022-12-13T20:51:31.699Z,2.90
2022-12-13T20:53:59.428Z,3.00
2022-12-13T20:56:31.857Z,2.90
2022-12-13T20:58:59.541Z,2.90
2022-12-13T21:01:32.524Z,2.90
2022-12-13T21:04:01.838Z,2.90
2022-12-13T21:06:32.675Z,2.80
2022-12-13T21:09:02.881Z,2.70
2022-12-13T21:11:36.407Z,2.70
2022-12-13T21:14:13.622Z,2.70
2022-12-13T21:17:01.273Z,2.80
2022-12-13T21:19:37.533Z,2.70
2022-12-13T21:22:06.435Z,2.70
2022-12-13T21:24:37.699Z,2.60
2022-12-13T21:27:06.739Z,2.70
2022-12-13T21:29:33.881Z,2.70
2022-12-13T21:32:01.080Z,2.70
2022-12-13T21:34:33.445Z,2.70
2022-12-13T21:37:03.361Z,2.80
2022-12-13T21:39:36.138Z,2.80
2022-12-13T21:42:05.085Z,2.80
2022-12-13T21:44:32.898Z,2.80
2022-12-13T21:47:15.359Z,2.90
2022-12-13T21:49:48.854Z,2.80
2022-12-13T21:52:17.677Z,2.80
2022-12-13T21:54:47.348Z,2.80
2022-12-13T21:57:34.332Z,2.80
2022-12-13T22:00:01.490Z,2.90
2022-12-13T22:02:30.960Z,3.00
2022-12-13T22:04:59.808Z,3.00
2022-12-13T22:07:33.524Z,2.90
2022-12-13T22:10:02.194Z,2.90
2022-12-13T22:12:39.481Z,2.90
2022-12-13T22:15:10.018Z,2.90
2022-12-13T22:17:39.190Z,3.00
2022-12-13T22:20:10.247Z,3.00
2022-12-13T22:22:44.808Z,3.00
2022-12-13T22:25:13.975Z,2.90
2022-12-13T22:27:41.105Z,3.00
2022-12-13T22:30:08.986Z,3.00
2022-12-13T22:32:36.276Z,3.00
2022-12-13T22:35:06.958Z,3.00
2022-12-13T22:37:34.047Z,3.00
2022-12-13T22:40:06.581Z,3.00
2022-12-13T22:42:33.767Z,3.00
2022-12-13T22:45:00.990Z,3.00
2022-12-13T22:47:33.675Z,3.00
2022-12-13T22:50:00.875Z,3.00
2022-12-13T22:52:34.036Z,3.00
2022-12-13T22:55:02.415Z,3.10
2022-12-13T22:57:33.730Z,3.10
2022-12-13T23:00:00.868Z,3.10
2022-12-13T23:02:28.369Z,3.10
2022-12-13T23:04:57.098Z,3.10
2022-12-13T23:07:24.267Z,3.10
2022-12-13T23:09:53.828Z,3.00
2022-12-13T23:12:40.437Z,2.90
2022-12-13T23:15:08.405Z,2.90
2022-12-13T23:17:35.933Z,2.90
2022-12-13T23:20:06.659Z,2.90
2022-12-13T23:22:35.855Z,2.90
2022-12-13T23:25:03.142Z,2.90
2022-12-13T23:27:31.210Z,2.90
2022-12-13T23:29:58.537Z,3.00
2022-12-13T23:32:28.340Z,3.00
2022-12-13T23:34:57.326Z,3.00
2022-12-13T23:37:25.117Z,3.10
2022-12-13T23:39:54.802Z,3.10
2022-12-13T23:42:23.336Z,3.10
2022-12-13T23:44:51.009Z,3.10
2022-12-13T23:47:20.210Z,3.00
2022-12-13T23:49:48.376Z,3.10
2022-12-13T23:52:15.613Z,3.10
2022-12-13T23:54:45.749Z,3.20
2022-12-13T23:57:12.914Z,3.20
2022-12-13T23:59:44.528Z,3.20
